Terminal Aerodrome Forecast
Issued by NWS

Home | Current Version | Previous Version | Text Only | Print | Product List | Glossary Off
Versions: 1 2 3 4 5 6 7 8 9 10 11 12 13 14

000
FTUS43 KFGF 191100
TAFBJI
TAF
KBJI 191120Z 1912/2012 16006KT P6SM OVC025
      TEMPO 1912/1915 4SM -SN OVC015
     FM191500 16006KT P6SM OVC015
     FM192100 16006KT P6SM OVC006=

USA.gov is the U.S. government's official web portal to all federal, state and local government web resources and services.